San Francisco — EFXF — position and weather

sailwx.info

Track history (hours):
 
Tides and Currents Weather Stations Pressure Air Temp Water Temp Dewpoint Dewpoint Depression Visibility Wind Speed Wind Dir Waves Ship Positions

San Francisco

Last reported at 2018-Jan-19 08:45 UTC. Time now 2018-Feb-19 04:33 UTC.
Position N 36°09' W 005°26'.
Warning: this ship's position is 30 days out of date.

Length 22 m.

Type: Cargo ship. MMSI: 224226000.

Date/timePositionNaut miles runAvg speedWind from/ knotsBaromVisibWave heightAir tempDewpointWater temp
2018-Jan-19 08:45N 36°09' W 005°26'0 0.2
2018-Jan-19 07:04N 36°09' W 005°26'1 8.7
2018-Jan-19 06:57N 36°08' W 005°25'1 3.0
2018-Jan-19 06:30N 36°09' W 005°27'2 0.1
2018-Jan-18 14:35N 36°07' W 005°25'1 0.4
2018-Jan-18 11:19N 36°09' W 005°25'3 9.1
2018-Jan-18 10:59N 36°07' W 005°22'4 8.5
2018-Jan-18 10:31N 36°06' W 005°17'0 0.7
2018-Jan-18 10:01N 36°06' W 005°17'1 1.2
2018-Jan-18 09:30N 36°05' W 005°18'1 2.5
2018-Jan-18 09:00N 36°05' W 005°19'2 4.0
2018-Jan-18 08:29N 36°04' W 005°21'2 4.7
2018-Jan-18 07:59N 36°06' W 005°23'  
2018-Jan-12 11:08N 36°09' W 005°26'1 3.4
2018-Jan-12 11:00N 36°08' W 005°27'0 0.1
2018-Jan-12 02:15N 36°09' W 005°27'2 8.0
2018-Jan-12 02:00N 36°08' W 005°25'4 6.9
2018-Jan-12 01:29N 36°04' W 005°22'4 7.9
2018-Jan-12 01:00N 36°08' W 005°25'2 3.0
2018-Jan-12 00:25N 36°09' W 005°26'0 0.0
2018-Jan-11 19:44N 36°09' W 005°26'2 6.4
2018-Jan-11 19:29N 36°08' W 005°25'5 9.8
2018-Jan-11 19:00N 36°05' W 005°20'2 3.6
2018-Jan-11 18:27N 36°03' W 005°20'2 2.9
2018-Jan-11 17:53N 36°03' W 005°22'4 9.3
2018-Jan-11 17:30N 36°07' W 005°24'3 0.5
2018-Jan-11 12:14N 36°09' W 005°26'1 5.2
2018-Jan-11 11:57N 36°10' W 005°26'1 0.1
2018-Jan-10 11:39N 36°09' W 005°26'0 0.0
2018-Jan-10 11:26N 36°09' W 005°26'2 3.4
2018-Jan-10 10:59N 36°08' W 005°25'0 0.0
2018-Jan-10 10:29N 36°08' W 005°25'0 0.0
2018-Jan-10 10:00N 36°08' W 005°25'0 0.0
2018-Jan-10 09:30N 36°08' W 005°25'2 0.5
2018-Jan-10 06:30N 36°09' W 005°26'4 7.6
2018-Jan-10 05:58N 36°06' W 005°23'2 3.8
2018-Jan-10 05:21N 36°04' W 005°21'3 8.7
2018-Jan-10 05:00N 36°06' W 005°24'3 0.5
2018-Jan-09 21:44N 36°09' W 005°26'1 5.1
2018-Jan-09 21:31N 36°08' W 005°25'5 9.0
2018-Jan-09 21:00N 36°05' W 005°22'0 0.8
2018-Jan-09 20:28N 36°04' W 005°22'0 0.7
2018-Jan-09 20:00N 36°05' W 005°22'2 3.4
2018-Jan-09 19:29N 36°06' W 005°24'3 0.9
2018-Jan-09 15:48N 36°09' W 005°26'2 5.5
2018-Jan-09 15:29N 36°08' W 005°25'4 8.1
2018-Jan-09 15:00N 36°05' W 005°22'2 3.6
2018-Jan-09 14:30N 36°06' W 005°23'  
Track history (hours):
 
Tides and Currents Weather Stations Pressure Air Temp Water Temp Dewpoint Dewpoint Depression Visibility Wind Speed Wind Dir Waves Ship Positions

San Francisco

Last reported at 2018-Jan-19 08:45 UTC. Time now 2018-Feb-19 04:33 UTC.
Position N 36°09' W 005°26'.
Warning: this ship's position is 30 days out of date.

Length 22 m.

Type: Cargo ship. MMSI: 224226000.

Date/timePositionNaut miles runAvg speedWind from/ knotsBaromVisibWave heightAir tempDewpointWater temp
2018-Jan-19 08:45N 36°09' W 005°26'0 0.2
2018-Jan-19 07:04N 36°09' W 005°26'1 8.7
2018-Jan-19 06:57N 36°08' W 005°25'1 3.0
2018-Jan-19 06:30N 36°09' W 005°27'2 0.1
2018-Jan-18 14:35N 36°07' W 005°25'1 0.4
2018-Jan-18 11:19N 36°09' W 005°25'3 9.1
2018-Jan-18 10:59N 36°07' W 005°22'4 8.5
2018-Jan-18 10:31N 36°06' W 005°17'0 0.7
2018-Jan-18 10:01N 36°06' W 005°17'1 1.2
2018-Jan-18 09:30N 36°05' W 005°18'1 2.5
2018-Jan-18 09:00N 36°05' W 005°19'2 4.0
2018-Jan-18 08:29N 36°04' W 005°21'2 4.7
2018-Jan-18 07:59N 36°06' W 005°23'  
2018-Jan-12 11:08N 36°09' W 005°26'1 3.4
2018-Jan-12 11:00N 36°08' W 005°27'0 0.1
2018-Jan-12 02:15N 36°09' W 005°27'2 8.0
2018-Jan-12 02:00N 36°08' W 005°25'4 6.9
2018-Jan-12 01:29N 36°04' W 005°22'4 7.9
2018-Jan-12 01:00N 36°08' W 005°25'2 3.0
2018-Jan-12 00:25N 36°09' W 005°26'0 0.0
2018-Jan-11 19:44N 36°09' W 005°26'2 6.4
2018-Jan-11 19:29N 36°08' W 005°25'5 9.8
2018-Jan-11 19:00N 36°05' W 005°20'2 3.6
2018-Jan-11 18:27N 36°03' W 005°20'2 2.9
2018-Jan-11 17:53N 36°03' W 005°22'4 9.3
2018-Jan-11 17:30N 36°07' W 005°24'3 0.5
2018-Jan-11 12:14N 36°09' W 005°26'1 5.2
2018-Jan-11 11:57N 36°10' W 005°26'1 0.1
2018-Jan-10 11:39N 36°09' W 005°26'0 0.0
2018-Jan-10 11:26N 36°09' W 005°26'2 3.4
2018-Jan-10 10:59N 36°08' W 005°25'0 0.0
2018-Jan-10 10:29N 36°08' W 005°25'0 0.0
2018-Jan-10 10:00N 36°08' W 005°25'0 0.0
2018-Jan-10 09:30N 36°08' W 005°25'2 0.5
2018-Jan-10 06:30N 36°09' W 005°26'4 7.6
2018-Jan-10 05:58N 36°06' W 005°23'2 3.8
2018-Jan-10 05:21N 36°04' W 005°21'3 8.7
2018-Jan-10 05:00N 36°06' W 005°24'3 0.5
2018-Jan-09 21:44N 36°09' W 005°26'1 5.1
2018-Jan-09 21:31N 36°08' W 005°25'5 9.0
2018-Jan-09 21:00N 36°05' W 005°22'0 0.8
2018-Jan-09 20:28N 36°04' W 005°22'0 0.7
2018-Jan-09 20:00N 36°05' W 005°22'2 3.4
2018-Jan-09 19:29N 36°06' W 005°24'3 0.9
2018-Jan-09 15:48N 36°09' W 005°26'2 5.5
2018-Jan-09 15:29N 36°08' W 005°25'4 8.1
2018-Jan-09 15:00N 36°05' W 005°22'2 3.6
2018-Jan-09 14:30N 36°06' W 005°23'  

Dump ship's entire track history